sensor_id;sensor_type;location;lat;lon;timestamp;temperature;humidity
25108;DHT22;13090;53.422;7.670;2022-12-18T00:03:28;-0.10;90.40
25108;DHT22;13090;53.422;7.670;2022-12-18T00:08:30;-0.10;90.40
25108;DHT22;13090;53.422;7.670;2022-12-18T00:13:32;-0.10;90.40
25108;DHT22;13090;53.422;7.670;2022-12-18T00:18:36;-0.20;90.40
25108;DHT22;13090;53.422;7.670;2022-12-18T00:23:40;-0.20;90.40
25108;DHT22;13090;53.422;7.670;2022-12-18T00:28:44;-0.20;90.50
25108;DHT22;13090;53.422;7.670;2022-12-18T00:33:48;-0.30;90.50
25108;DHT22;13090;53.422;7.670;2022-12-18T00:38:57;-0.30;90.50
25108;DHT22;13090;53.422;7.670;2022-12-18T00:44:00;-0.30;90.40
25108;DHT22;13090;53.422;7.670;2022-12-18T00:49:03;-0.30;90.40
25108;DHT22;13090;53.422;7.670;2022-12-18T00:54:06;-0.30;90.40
25108;DHT22;13090;53.422;7.670;2022-12-18T00:59:08;-0.30;90.30
25108;DHT22;13090;53.422;7.670;2022-12-18T01:04:11;-0.40;90.20
25108;DHT22;13090;53.422;7.670;2022-12-18T01:09:14;-0.50;90.10
25108;DHT22;13090;53.422;7.670;2022-12-18T01:14:17;-0.60;90.10
25108;DHT22;13090;53.422;7.670;2022-12-18T01:19:20;-0.60;90.10
25108;DHT22;13090;53.422;7.670;2022-12-18T01:24:23;-0.70;90.10
25108;DHT22;13090;53.422;7.670;2022-12-18T01:29:25;-0.80;90.10
25108;DHT22;13090;53.422;7.670;2022-12-18T01:34:28;-0.90;90.10
25108;DHT22;13090;53.422;7.670;2022-12-18T01:39:31;-0.90;90.20
25108;DHT22;13090;53.422;7.670;2022-12-18T01:45:02;-1.00;90.10
25108;DHT22;13090;53.422;7.670;2022-12-18T01:50:10;-1.10;90.10
25108;DHT22;13090;53.422;7.670;2022-12-18T01:55:14;-1.10;90.10
25108;DHT22;13090;53.422;7.670;2022-12-18T02:00:20;-1.20;90.10
25108;DHT22;13090;53.422;7.670;2022-12-18T02:05:31;-1.20;90.10
25108;DHT22;13090;53.422;7.670;2022-12-18T02:10:41;-1.30;90.10
25108;DHT22;13090;53.422;7.670;2022-12-18T02:15:53;-1.30;90.10
25108;DHT22;13090;53.422;7.670;2022-12-18T02:21:08;-1.30;90.10
25108;DHT22;13090;53.422;7.670;2022-12-18T02:26:19;-1.30;90.00
25108;DHT22;13090;53.422;7.670;2022-12-18T02:31:26;-1.40;89.90
25108;DHT22;13090;53.422;7.670;2022-12-18T02:36:30;-1.50;89.80
25108;DHT22;13090;53.422;7.670;2022-12-18T02:41:35;-1.60;89.80
25108;DHT22;13090;53.422;7.670;2022-12-18T02:46:40;-1.60;89.90
25108;DHT22;13090;53.422;7.670;2022-12-18T02:51:50;-1.70;89.90
25108;DHT22;13090;53.422;7.670;2022-12-18T02:56:57;-1.80;89.80
25108;DHT22;13090;53.422;7.670;2022-12-18T03:02:06;-1.90;89.90
25108;DHT22;13090;53.422;7.670;2022-12-18T03:07:11;-2.00;89.90
25108;DHT22;13090;53.422;7.670;2022-12-18T03:12:21;-2.00;90.00
25108;DHT22;13090;53.422;7.670;2022-12-18T03:17:28;-2.10;90.00
25108;DHT22;13090;53.422;7.670;2022-12-18T03:22:33;-2.10;89.90
25108;DHT22;13090;53.422;7.670;2022-12-18T03:27:39;-2.10;90.00
25108;DHT22;13090;53.422;7.670;2022-12-18T03:32:46;-2.20;89.90
25108;DHT22;13090;53.422;7.670;2022-12-18T03:37:49;-2.20;90.00
25108;DHT22;13090;53.422;7.670;2022-12-18T03:42:58;-2.20;90.10
25108;DHT22;13090;53.422;7.670;2022-12-18T03:48:05;-2.30;89.80
25108;DHT22;13090;53.422;7.670;2022-12-18T03:53:21;-2.40;89.70
25108;DHT22;13090;53.422;7.670;2022-12-18T03:58:27;-2.50;89.60
25108;DHT22;13090;53.422;7.670;2022-12-18T04:03:32;-2.60;89.70
25108;DHT22;13090;53.422;7.670;2022-12-18T04:08:37;-2.70;89.60
25108;DHT22;13090;53.422;7.670;2022-12-18T04:13:42;-2.80;89.70
25108;DHT22;13090;53.422;7.670;2022-12-18T04:18:45;-2.80;89.70
25108;DHT22;13090;53.422;7.670;2022-12-18T04:23:47;-2.90;89.80
25108;DHT22;13090;53.422;7.670;2022-12-18T04:28:50;-3.00;89.80
25108;DHT22;13090;53.422;7.670;2022-12-18T04:33:52;-3.00;89.80
25108;DHT22;13090;53.422;7.670;2022-12-18T04:38:55;-3.10;89.90
25108;DHT22;13090;53.422;7.670;2022-12-18T04:43:59;-3.20;89.90
25108;DHT22;13090;53.422;7.670;2022-12-18T04:49:01;-3.20;90.00
25108;DHT22;13090;53.422;7.670;2022-12-18T04:54:03;-3.20;90.00
25108;DHT22;13090;53.422;7.670;2022-12-18T04:59:07;-3.20;90.10
25108;DHT22;13090;53.422;7.670;2022-12-18T05:04:09;-3.20;90.00
25108;DHT22;13090;53.422;7.670;2022-12-18T05:09:11;-3.30;90.00
25108;DHT22;13090;53.422;7.670;2022-12-18T05:14:15;-3.30;90.00
25108;DHT22;13090;53.422;7.670;2022-12-18T05:19:17;-3.30;90.40
25108;DHT22;13090;53.422;7.670;2022-12-18T05:24:19;-3.40;90.00
25108;DHT22;13090;53.422;7.670;2022-12-18T05:29:23;-3.40;90.30
25108;DHT22;13090;53.422;7.670;2022-12-18T05:34:25;-3.40;89.90
25108;DHT22;13090;53.422;7.670;2022-12-18T05:39:27;-3.40;90.00
25108;DHT22;13090;53.422;7.670;2022-12-18T05:44:31;-3.50;90.00
25108;DHT22;13090;53.422;7.670;2022-12-18T05:49:33;-3.50;90.00
25108;DHT22;13090;53.422;7.670;2022-12-18T05:54:35;-3.50;90.00
25108;DHT22;13090;53.422;7.670;2022-12-18T05:59:40;-3.50;90.00
25108;DHT22;13090;53.422;7.670;2022-12-18T06:04:42;-3.50;90.00
25108;DHT22;13090;53.422;7.670;2022-12-18T06:09:45;-3.60;89.80
25108;DHT22;13090;53.422;7.670;2022-12-18T06:14:48;-3.60;89.90
25108;DHT22;13090;53.422;7.670;2022-12-18T06:19:50;-3.60;89.90
25108;DHT22;13090;53.422;7.670;2022-12-18T06:24:52;-3.60;89.90
25108;DHT22;13090;53.422;7.670;2022-12-18T06:29:56;-3.60;89.90
25108;DHT22;13090;53.422;7.670;2022-12-18T06:34:58;-3.60;90.00
25108;DHT22;13090;53.422;7.670;2022-12-18T06:40:00;-3.60;90.00
25108;DHT22;13090;53.422;7.670;2022-12-18T06:45:05;-3.60;89.90
25108;DHT22;13090;53.422;7.670;2022-12-18T06:50:07;-3.60;89.80
25108;DHT22;13090;53.422;7.670;2022-12-18T06:55:10;-3.60;89.80
25108;DHT22;13090;53.422;7.670;2022-12-18T07:00:15;-3.60;89.80
25108;DHT22;13090;53.422;7.670;2022-12-18T07:05:17;-3.70;89.70
25108;DHT22;13090;53.422;7.670;2022-12-18T07:10:19;-3.70;89.70
25108;DHT22;13090;53.422;7.670;2022-12-18T07:15:22;-3.80;89.70
25108;DHT22;13090;53.422;7.670;2022-12-18T07:20:25;-3.70;89.80
25108;DHT22;13090;53.422;7.670;2022-12-18T07:25:27;-3.80;89.80
25108;DHT22;13090;53.422;7.670;2022-12-18T07:30:30;-3.80;89.80
25108;DHT22;13090;53.422;7.670;2022-12-18T07:35:33;-3.80;89.90
25108;DHT22;13090;53.422;7.670;2022-12-18T07:40:35;-3.80;89.90
25108;DHT22;13090;53.422;7.670;2022-12-18T07:45:39;-3.70;90.00
25108;DHT22;13090;53.422;7.670;2022-12-18T07:50:41;-3.70;90.00
25108;DHT22;13090;53.422;7.670;2022-12-18T07:55:43;-3.70;90.00
25108;DHT22;13090;53.422;7.670;2022-12-18T08:01:08;-3.60;90.10
25108;DHT22;13090;53.422;7.670;2022-12-18T08:06:12;-3.30;90.40
25108;DHT22;13090;53.422;7.670;2022-12-18T08:11:14;-2.90;90.60
25108;DHT22;13090;53.422;7.670;2022-12-18T08:16:18;-2.40;90.70
25108;DHT22;13090;53.422;7.670;2022-12-18T08:21:24;-2.00;90.20
25108;DHT22;13090;53.422;7.670;2022-12-18T08:26:27;-1.70;90.00
25108;DHT22;13090;53.422;7.670;2022-12-18T08:31:31;-1.40;89.40
25108;DHT22;13090;53.422;7.670;2022-12-18T08:36:34;-1.20;89.00
25108;DHT22;13090;53.422;7.670;2022-12-18T08:41:36;-0.90;89.00
25108;DHT22;13090;53.422;7.670;2022-12-18T08:46:41;-0.80;88.20
25108;DHT22;13090;53.422;7.670;2022-12-18T08:51:43;-0.70;88.20
25108;DHT22;13090;53.422;7.670;2022-12-18T08:56:45;-0.70;87.70
25108;DHT22;13090;53.422;7.670;2022-12-18T09:01:49;-0.60;88.10
25108;DHT22;13090;53.422;7.670;2022-12-18T09:06:51;-0.50;88.10
25108;DHT22;13090;53.422;7.670;2022-12-18T09:11:54;-0.40;87.50
25108;DHT22;13090;53.422;7.670;2022-12-18T09:16:57;-0.40;86.60
25108;DHT22;13090;53.422;7.670;2022-12-18T09:21:59;-0.60;86.20
25108;DHT22;13090;53.422;7.670;2022-12-18T09:27:01;-0.80;85.70
25108;DHT22;13090;53.422;7.670;2022-12-18T09:32:06;-1.00;86.60
25108;DHT22;13090;53.422;7.670;2022-12-18T09:37:08;-1.10;87.10
25108;DHT22;13090;53.422;7.670;2022-12-18T09:42:16;-1.10;87.80
25108;DHT22;13090;53.422;7.670;2022-12-18T09:47:27;-1.00;88.80
25108;DHT22;13090;53.422;7.670;2022-12-18T09:52:33;-0.80;88.10
25108;DHT22;13090;53.422;7.670;2022-12-18T09:57:42;-0.70;87.40
25108;DHT22;13090;53.422;7.670;2022-12-18T10:02:49;-0.60;87.80
25108;DHT22;13090;53.422;7.670;2022-12-18T10:07:59;-0.40;87.80
25108;DHT22;13090;53.422;7.670;2022-12-18T10:13:12;-0.30;87.10
25108;DHT22;13090;53.422;7.670;2022-12-18T10:18:26;-0.30;86.90
25108;DHT22;13090;53.422;7.670;2022-12-18T10:23:35;-0.30;86.30
25108;DHT22;13090;53.422;7.670;2022-12-18T10:28:50;-0.30;86.60
25108;DHT22;13090;53.422;7.670;2022-12-18T10:33:55;-0.30;86.60
25108;DHT22;13090;53.422;7.670;2022-12-18T10:39:14;-0.30;86.10
25108;DHT22;13090;53.422;7.670;2022-12-18T10:44:19;-0.30;86.10
25108;DHT22;13090;53.422;7.670;2022-12-18T10:49:27;-0.20;86.70
25108;DHT22;13090;53.422;7.670;2022-12-18T10:54:31;0.00;87.50
25108;DHT22;13090;53.422;7.670;2022-12-18T10:59:50;0.30;85.70
25108;DHT22;13090;53.422;7.670;2022-12-18T11:04:57;0.50;86.20
25108;DHT22;13090;53.422;7.670;2022-12-18T11:10:00;0.60;85.80
25108;DHT22;13090;53.422;7.670;2022-12-18T11:15:03;0.90;86.30
25108;DHT22;13090;53.422;7.670;2022-12-18T11:20:20;1.30;87.00
25108;DHT22;13090;53.422;7.670;2022-12-18T11:25:26;1.90;86.90
25108;DHT22;13090;53.422;7.670;2022-12-18T11:30:36;2.20;84.10
25108;DHT22;13090;53.422;7.670;2022-12-18T11:35:44;2.40;82.30
25108;DHT22;13090;53.422;7.670;2022-12-18T11:40:54;2.30;81.90
25108;DHT22;13090;53.422;7.670;2022-12-18T11:46:01;2.30;82.50
25108;DHT22;13090;53.422;7.670;2022-12-18T11:51:13;2.20;81.20
25108;DHT22;13090;53.422;7.670;2022-12-18T11:56:28;2.00;80.70
25108;DHT22;13090;53.422;7.670;2022-12-18T12:01:41;1.70;80.80
25108;DHT22;13090;53.422;7.670;2022-12-18T12:06:57;1.50;81.40
25108;DHT22;13090;53.422;7.670;2022-12-18T12:12:16;1.30;82.70
25108;DHT22;13090;53.422;7.670;2022-12-18T12:17:32;1.20;82.50
25108;DHT22;13090;53.422;7.670;2022-12-18T12:22:44;1.00;82.70
25108;DHT22;13090;53.422;7.670;2022-12-18T12:27:57;0.90;82.90
25108;DHT22;13090;53.422;7.670;2022-12-18T12:33:15;0.80;83.70
25108;DHT22;13090;53.422;7.670;2022-12-18T12:38:24;0.70;84.40
25108;DHT22;13090;53.422;7.670;2022-12-18T12:43:33;0.70;84.60
25108;DHT22;13090;53.422;7.670;2022-12-18T12:48:42;0.70;84.90
25108;DHT22;13090;53.422;7.670;2022-12-18T12:53:49;0.60;85.30
25108;DHT22;13090;53.422;7.670;2022-12-18T12:58:58;0.60;85.40
25108;DHT22;13090;53.422;7.670;2022-12-18T13:04:12;0.60;85.70
25108;DHT22;13090;53.422;7.670;2022-12-18T13:09:19;0.60;85.80
25108;DHT22;13090;53.422;7.670;2022-12-18T13:14:24;0.60;85.80
25108;DHT22;13090;53.422;7.670;2022-12-18T13:19:27;0.60;86.10
25108;DHT22;13090;53.422;7.670;2022-12-18T13:24:31;0.70;86.90
25108;DHT22;13090;53.422;7.670;2022-12-18T13:29:44;0.70;86.20
25108;DHT22;13090;53.422;7.670;2022-12-18T13:34:46;0.80;86.20
25108;DHT22;13090;53.422;7.670;2022-12-18T13:39:50;0.80;86.10
25108;DHT22;13090;53.422;7.670;2022-12-18T13:44:52;0.80;85.70
25108;DHT22;13090;53.422;7.670;2022-12-18T13:49:55;0.80;85.40
25108;DHT22;13090;53.422;7.670;2022-12-18T13:55:01;0.70;85.60
25108;DHT22;13090;53.422;7.670;2022-12-18T14:00:23;0.70;85.60
25108;DHT22;13090;53.422;7.670;2022-12-18T14:05:28;0.70;85.90
25108;DHT22;13090;53.422;7.670;2022-12-18T14:10:33;0.60;85.80
25108;DHT22;13090;53.422;7.670;2022-12-18T14:15:50;0.60;85.90
25108;DHT22;13090;53.422;7.670;2022-12-18T14:20:55;0.50;85.80
25108;DHT22;13090;53.422;7.670;2022-12-18T14:26:00;0.50;86.00
25108;DHT22;13090;53.422;7.670;2022-12-18T14:31:18;0.40;86.20
25108;DHT22;13090;53.422;7.670;2022-12-18T14:36:22;0.40;86.50
25108;DHT22;13090;53.422;7.670;2022-12-18T14:41:29;0.30;86.80
25108;DHT22;13090;53.422;7.670;2022-12-18T14:46:35;0.20;87.10
25108;DHT22;13090;53.422;7.670;2022-12-18T14:51:37;0.10;88.20
25108;DHT22;13090;53.422;7.670;2022-12-18T14:56:46;0.00;87.70
25108;DHT22;13090;53.422;7.670;2022-12-18T15:01:57;0.00;87.90
25108;DHT22;13090;53.422;7.670;2022-12-18T15:07:07;0.00;88.30
25108;DHT22;13090;53.422;7.670;2022-12-18T15:12:26;-0.10;88.50
25108;DHT22;13090;53.422;7.670;2022-12-18T15:17:30;-0.10;88.60
25108;DHT22;13090;53.422;7.670;2022-12-18T15:22:34;-0.10;88.70
25108;DHT22;13090;53.422;7.670;2022-12-18T15:27:40;-0.10;88.70
25108;DHT22;13090;53.422;7.670;2022-12-18T15:32:48;-0.10;88.80
25108;DHT22;13090;53.422;7.670;2022-12-18T15:37:51;-0.10;88.60
25108;DHT22;13090;53.422;7.670;2022-12-18T15:42:55;-0.10;88.60
25108;DHT22;13090;53.422;7.670;2022-12-18T15:47:58;0.00;88.50
25108;DHT22;13090;53.422;7.670;2022-12-18T15:53:00;0.00;88.40
25108;DHT22;13090;53.422;7.670;2022-12-18T15:58:04;0.00;88.40
25108;DHT22;13090;53.422;7.670;2022-12-18T16:03:08;0.00;88.20
25108;DHT22;13090;53.422;7.670;2022-12-18T16:08:10;0.00;88.20
25108;DHT22;13090;53.422;7.670;2022-12-18T16:13:16;0.10;88.00
25108;DHT22;13090;53.422;7.670;2022-12-18T16:18:20;0.10;88.00
25108;DHT22;13090;53.422;7.670;2022-12-18T16:23:22;0.10;87.70
25108;DHT22;13090;53.422;7.670;2022-12-18T16:28:26;0.10;87.50
25108;DHT22;13090;53.422;7.670;2022-12-18T16:33:28;0.10;87.50
25108;DHT22;13090;53.422;7.670;2022-12-18T16:38:30;0.20;87.60
25108;DHT22;13090;53.422;7.670;2022-12-18T16:43:34;0.20;87.30
25108;DHT22;13090;53.422;7.670;2022-12-18T16:48:36;0.30;87.00
25108;DHT22;13090;53.422;7.670;2022-12-18T16:53:38;0.30;86.50
25108;DHT22;13090;53.422;7.670;2022-12-18T16:58:42;0.40;86.40
25108;DHT22;13090;53.422;7.670;2022-12-18T17:03:51;0.50;86.60
25108;DHT22;13090;53.422;7.670;2022-12-18T17:08:54;0.50;85.60
25108;DHT22;13090;53.422;7.670;2022-12-18T17:13:59;0.70;86.00
25108;DHT22;13090;53.422;7.670;2022-12-18T17:19:02;0.70;85.10
25108;DHT22;13090;53.422;7.670;2022-12-18T17:24:05;0.80;83.80
25108;DHT22;13090;53.422;7.670;2022-12-18T17:29:10;0.80;84.30
25108;DHT22;13090;53.422;7.670;2022-12-18T17:34:14;0.90;84.10
25108;DHT22;13090;53.422;7.670;2022-12-18T17:39:19;1.00;83.50
25108;DHT22;13090;53.422;7.670;2022-12-18T17:44:22;1.00;83.80
25108;DHT22;13090;53.422;7.670;2022-12-18T17:49:25;1.00;83.50
25108;DHT22;13090;53.422;7.670;2022-12-18T17:54:27;1.00;83.10
25108;DHT22;13090;53.422;7.670;2022-12-18T17:59:30;1.10;84.20
25108;DHT22;13090;53.422;7.670;2022-12-18T18:04:33;1.10;84.20
25108;DHT22;13090;53.422;7.670;2022-12-18T18:09:35;1.20;82.80
25108;DHT22;13090;53.422;7.670;2022-12-18T18:14:38;1.20;83.10
25108;DHT22;13090;53.422;7.670;2022-12-18T18:19:41;1.20;83.70
25108;DHT22;13090;53.422;7.670;2022-12-18T18:24:48;1.30;83.90
25108;DHT22;13090;53.422;7.670;2022-12-18T18:29:51;1.30;83.50
25108;DHT22;13090;53.422;7.670;2022-12-18T18:34:53;1.40;84.30
25108;DHT22;13090;53.422;7.670;2022-12-18T18:39:56;1.50;84.40
25108;DHT22;13090;53.422;7.670;2022-12-18T18:44:59;1.50;84.20
25108;DHT22;13090;53.422;7.670;2022-12-18T18:50:02;1.50;82.60
25108;DHT22;13090;53.422;7.670;2022-12-18T18:55:05;1.50;83.80
25108;DHT22;13090;53.422;7.670;2022-12-18T19:00:28;1.60;83.50
25108;DHT22;13090;53.422;7.670;2022-12-18T19:05:30;1.70;83.10
25108;DHT22;13090;53.422;7.670;2022-12-18T19:10:32;1.80;83.20
25108;DHT22;13090;53.422;7.670;2022-12-18T19:15:36;1.80;83.40
25108;DHT22;13090;53.422;7.670;2022-12-18T19:20:38;1.90;83.00
25108;DHT22;13090;53.422;7.670;2022-12-18T19:25:40;1.90;82.80
25108;DHT22;13090;53.422;7.670;2022-12-18T19:30:45;2.00;82.30
25108;DHT22;13090;53.422;7.670;2022-12-18T19:35:47;2.00;82.70
25108;DHT22;13090;53.422;7.670;2022-12-18T19:40:49;2.10;83.00
25108;DHT22;13090;53.422;7.670;2022-12-18T19:45:55;2.10;82.50
25108;DHT22;13090;53.422;7.670;2022-12-18T19:50:57;2.10;82.20
25108;DHT22;13090;53.422;7.670;2022-12-18T19:56:04;2.10;81.50
25108;DHT22;13090;53.422;7.670;2022-12-18T20:01:09;2.20;82.20
25108;DHT22;13090;53.422;7.670;2022-12-18T20:06:18;2.20;82.30
25108;DHT22;13090;53.422;7.670;2022-12-18T20:11:21;2.30;82.10
25108;DHT22;13090;53.422;7.670;2022-12-18T20:16:24;2.30;82.20
25108;DHT22;13090;53.422;7.670;2022-12-18T20:21:28;2.30;80.80
25108;DHT22;13090;53.422;7.670;2022-12-18T20:26:30;2.30;81.70
25108;DHT22;13090;53.422;7.670;2022-12-18T20:31:33;2.30;81.60
25108;DHT22;13090;53.422;7.670;2022-12-18T20:36:35;2.30;81.20
25108;DHT22;13090;53.422;7.670;2022-12-18T20:41:40;2.30;81.20
25108;DHT22;13090;53.422;7.670;2022-12-18T20:46:44;2.40;81.40
25108;DHT22;13090;53.422;7.670;2022-12-18T20:51:49;2.40;81.00
25108;DHT22;13090;53.422;7.670;2022-12-18T20:56:51;2.30;80.70
25108;DHT22;13090;53.422;7.670;2022-12-18T21:01:55;2.30;80.80
25108;DHT22;13090;53.422;7.670;2022-12-18T21:06:57;2.30;80.90
25108;DHT22;13090;53.422;7.670;2022-12-18T21:12:05;2.40;81.30
25108;DHT22;13090;53.422;7.670;2022-12-18T21:17:09;2.30;80.60
25108;DHT22;13090;53.422;7.670;2022-12-18T21:22:11;2.40;80.90
25108;DHT22;13090;53.422;7.670;2022-12-18T21:27:14;2.40;80.70
25108;DHT22;13090;53.422;7.670;2022-12-18T21:32:20;2.40;80.40
25108;DHT22;13090;53.422;7.670;2022-12-18T21:37:25;2.40;80.20
25108;DHT22;13090;53.422;7.670;2022-12-18T21:42:27;2.40;81.00
25108;DHT22;13090;53.422;7.670;2022-12-18T21:47:30;2.40;80.90
25108;DHT22;13090;53.422;7.670;2022-12-18T21:52:32;2.40;80.70
25108;DHT22;13090;53.422;7.670;2022-12-18T21:57:35;2.50;80.80
25108;DHT22;13090;53.422;7.670;2022-12-18T22:02:38;2.50;81.70
25108;DHT22;13090;53.422;7.670;2022-12-18T22:07:41;2.50;80.80
25108;DHT22;13090;53.422;7.670;2022-12-18T22:12:43;2.60;80.70
25108;DHT22;13090;53.422;7.670;2022-12-18T22:17:48;2.60;80.50
25108;DHT22;13090;53.422;7.670;2022-12-18T22:22:50;2.60;80.50
25108;DHT22;13090;53.422;7.670;2022-12-18T22:27:52;2.60;80.60
25108;DHT22;13090;53.422;7.670;2022-12-18T22:32:56;2.70;80.60
25108;DHT22;13090;53.422;7.670;2022-12-18T22:37:58;2.70;80.40
25108;DHT22;13090;53.422;7.670;2022-12-18T22:43:00;2.70;80.70
25108;DHT22;13090;53.422;7.670;2022-12-18T22:48:04;2.70;80.00
25108;DHT22;13090;53.422;7.670;2022-12-18T22:53:06;2.80;80.40
25108;DHT22;13090;53.422;7.670;2022-12-18T22:58:08;2.80;80.10
25108;DHT22;13090;53.422;7.670;2022-12-18T23:03:12;2.90;80.30
25108;DHT22;13090;53.422;7.670;2022-12-18T23:08:14;2.90;80.30
25108;DHT22;13090;53.422;7.670;2022-12-18T23:13:17;2.90;80.10
25108;DHT22;13090;53.422;7.670;2022-12-18T23:18:20;2.90;79.90
25108;DHT22;13090;53.422;7.670;2022-12-18T23:23:23;3.00;79.60
25108;DHT22;13090;53.422;7.670;2022-12-18T23:28:25;3.00;79.90
25108;DHT22;13090;53.422;7.670;2022-12-18T23:33:31;3.00;79.80
25108;DHT22;13090;53.422;7.670;2022-12-18T23:38:34;3.10;79.60
25108;DHT22;13090;53.422;7.670;2022-12-18T23:43:36;3.10;79.60
25108;DHT22;13090;53.422;7.670;2022-12-18T23:48:40;3.10;79.60
25108;DHT22;13090;53.422;7.670;2022-12-18T23:53:43;3.10;79.70
25108;DHT22;13090;53.422;7.670;2022-12-18T23:58:46;3.10;80.00
